createdAt,value
2022-12-26T00:00:13.068Z,63.80
2022-12-26T00:02:46.660Z,65.07
2022-12-26T00:05:20.230Z,85.70
2022-12-26T00:07:53.751Z,64.68
2022-12-26T00:10:27.253Z,59.05
2022-12-26T00:13:40.113Z,57.25
2022-12-26T00:15:56.046Z,71.38
2022-12-26T00:18:29.672Z,63.17
2022-12-26T00:21:03.123Z,63.03
2022-12-26T00:23:37.095Z,63.83
2022-12-26T00:26:12.773Z,74.25
2022-12-26T00:28:46.935Z,53.63
2022-12-26T00:31:23.582Z,74.63
2022-12-26T00:33:57.725Z,49.00
2022-12-26T00:36:32.765Z,40.15
2022-12-26T00:39:06.449Z,36.22
2022-12-26T00:41:39.922Z,59.55
2022-12-26T00:44:13.540Z,59.95
2022-12-26T00:46:48.431Z,42.15
2022-12-26T00:49:22.271Z,53.65
2022-12-26T00:51:55.719Z,37.03
2022-12-26T00:54:29.393Z,30.73
2022-12-26T00:57:02.892Z,34.75
2022-12-26T00:59:36.368Z,37.33
2022-12-26T01:02:27.173Z,39.35
2022-12-26T01:05:00.734Z,27.63
2022-12-26T01:07:35.367Z,29.05
2022-12-26T01:10:29.496Z,36.20
2022-12-26T01:13:03.334Z,55.10
2022-12-26T01:15:36.817Z,33.90
2022-12-26T01:18:12.015Z,47.70
2022-12-26T01:20:45.675Z,44.10
2022-12-26T01:23:19.536Z,37.63
2022-12-26T01:26:17.691Z,42.58
2022-12-26T01:28:46.782Z,38.80
2022-12-26T01:31:21.177Z,38.28
2022-12-26T01:33:56.415Z,21.55
2022-12-26T01:36:29.881Z,32.90
2022-12-26T01:39:03.548Z,26.73
2022-12-26T01:41:37.463Z,28.15
2022-12-26T01:44:43.659Z,24.70
2022-12-26T01:47:18.122Z,25.55
2022-12-26T01:49:55.443Z,25.40
2022-12-26T01:52:34.282Z,23.60
2022-12-26T01:55:11.705Z,21.52
2022-12-26T01:57:49.243Z,23.65
2022-12-26T02:00:22.815Z,23.88
2022-12-26T02:03:14.253Z,19.60
2022-12-26T02:05:50.129Z,20.10
2022-12-26T02:08:28.023Z,16.67
2022-12-26T02:11:11.849Z,23.00
2022-12-26T02:13:45.543Z,15.25
2022-12-26T02:16:19.973Z,16.20
2022-12-26T02:18:53.917Z,22.25
2022-12-26T02:21:54.784Z,16.13
2022-12-26T02:24:56.995Z,17.63
2022-12-26T02:27:57.221Z,17.73
2022-12-26T02:30:40.593Z,22.05
2022-12-26T02:33:33.464Z,13.38
2022-12-26T02:39:43.609Z,19.50
2022-12-26T02:42:07.911Z,14.43
2022-12-26T02:45:07.514Z,13.40
2022-12-26T02:47:50.629Z,14.27
2022-12-26T02:50:51.503Z,11.70
2022-12-26T02:53:50.375Z,14.43
2022-12-26T02:56:46.000Z,13.55
2022-12-26T02:59:53.834Z,13.93
2022-12-26T03:02:52.395Z,13.55
2022-12-26T03:05:50.199Z,13.73
2022-12-26T03:08:47.170Z,12.77
2022-12-26T03:11:38.254Z,16.40
2022-12-26T03:14:19.038Z,29.83
2022-12-26T03:17:14.926Z,10.73
2022-12-26T03:20:01.294Z,11.40
2022-12-26T03:22:43.255Z,8.93
2022-12-26T03:25:40.967Z,15.80
2022-12-26T03:28:14.801Z,8.05
2022-12-26T03:30:50.324Z,15.07
2022-12-26T03:33:45.353Z,12.10
2022-12-26T03:36:30.445Z,13.00
2022-12-26T03:39:16.759Z,13.60
2022-12-26T03:42:15.957Z,10.65
2022-12-26T03:45:14.671Z,10.30
2022-12-26T03:48:12.230Z,7.65
2022-12-26T03:51:07.826Z,6.18
2022-12-26T03:54:03.703Z,9.50
2022-12-26T03:57:00.403Z,7.32
2022-12-26T03:59:57.461Z,5.75
2022-12-26T04:02:49.316Z,12.70
2022-12-26T04:05:40.327Z,8.25
2022-12-26T04:08:35.786Z,6.05
2022-12-26T04:11:33.063Z,15.20
2022-12-26T04:14:30.631Z,6.80
2022-12-26T04:17:36.257Z,7.78
2022-12-26T04:20:16.213Z,7.45
2022-12-26T04:23:13.227Z,8.43
2022-12-26T04:26:10.378Z,10.32
2022-12-26T04:29:01.311Z,5.63
2022-12-26T04:32:02.220Z,5.15
2022-12-26T04:34:58.899Z,6.88
2022-12-26T04:37:52.458Z,4.20
2022-12-26T04:40:47.822Z,4.93
2022-12-26T04:43:49.319Z,7.00
2022-12-26T04:46:26.091Z,6.18
2022-12-26T04:49:21.887Z,4.10
2022-12-26T04:51:57.412Z,5.07
2022-12-26T04:54:30.965Z,7.22
2022-12-26T04:57:04.832Z,4.07
2022-12-26T04:59:38.434Z,7.82
2022-12-26T05:02:34.994Z,8.20
2022-12-26T05:05:28.483Z,4.57
2022-12-26T05:08:19.530Z,10.05
2022-12-26T05:10:52.998Z,5.97
2022-12-26T05:13:26.949Z,7.47
2022-12-26T05:16:17.819Z,4.63
2022-12-26T05:19:08.204Z,8.73
2022-12-26T05:22:01.518Z,6.00
2022-12-26T05:24:56.169Z,5.65
2022-12-26T05:27:53.732Z,5.47
2022-12-26T05:30:27.310Z,9.85
2022-12-26T05:33:18.485Z,9.88
2022-12-26T05:35:52.008Z,4.53
2022-12-26T05:38:26.921Z,4.00
2022-12-26T05:41:00.519Z,5.43
2022-12-26T05:43:34.017Z,10.00
2022-12-26T05:46:07.551Z,4.57
2022-12-26T05:48:41.053Z,5.82
2022-12-26T05:51:15.388Z,10.45
2022-12-26T05:53:50.405Z,4.75
2022-12-26T05:56:24.420Z,5.95
2022-12-26T05:58:59.550Z,7.57
2022-12-26T06:01:33.137Z,5.85
2022-12-26T06:04:06.946Z,5.35
2022-12-26T06:06:40.421Z,9.20
2022-12-26T06:09:15.358Z,4.78
2022-12-26T06:11:50.014Z,9.60
2022-12-26T06:14:23.772Z,6.28
2022-12-26T06:16:57.345Z,8.70
2022-12-26T06:19:31.014Z,8.77
2022-12-26T06:22:04.533Z,6.90
2022-12-26T06:24:39.527Z,5.65
2022-12-26T06:27:13.107Z,8.18
2022-12-26T06:29:47.247Z,7.68
2022-12-26T06:32:20.760Z,8.20
2022-12-26T06:34:54.305Z,10.60
2022-12-26T06:37:27.795Z,11.88
2022-12-26T06:40:02.886Z,6.78
2022-12-26T06:42:38.679Z,15.63
2022-12-26T06:45:12.912Z,9.13
2022-12-26T06:47:46.456Z,5.75
2022-12-26T06:50:22.891Z,7.72
2022-12-26T06:52:56.409Z,13.13
2022-12-26T06:55:31.314Z,8.88
2022-12-26T06:58:04.858Z,6.65
2022-12-26T07:00:38.558Z,9.50
2022-12-26T07:03:12.491Z,6.90
2022-12-26T07:05:46.076Z,16.92
2022-12-26T07:08:19.555Z,7.53
2022-12-26T07:10:54.448Z,16.88
2022-12-26T07:13:27.948Z,7.40
2022-12-26T07:16:01.698Z,13.38
2022-12-26T07:18:35.412Z,13.95
2022-12-26T07:21:10.637Z,11.50
2022-12-26T07:23:44.486Z,12.38
2022-12-26T07:26:20.103Z,12.80
2022-12-26T07:28:55.474Z,13.40
2022-12-26T07:31:29.312Z,15.82
2022-12-26T07:34:03.154Z,19.15
2022-12-26T07:36:36.791Z,16.60
2022-12-26T07:39:10.464Z,17.02
2022-12-26T07:42:00.710Z,11.02
2022-12-26T07:44:35.030Z,11.25
2022-12-26T07:47:08.554Z,16.15
2022-12-26T07:49:42.207Z,20.10
2022-12-26T07:52:15.875Z,15.57
2022-12-26T07:54:49.348Z,16.75
2022-12-26T08:00:20.298Z,18.02
2022-12-26T08:02:54.688Z,16.42
2022-12-26T08:05:28.236Z,18.13
2022-12-26T08:08:01.926Z,14.40
2022-12-26T08:10:35.442Z,13.85
2022-12-26T08:13:10.829Z,15.57
2022-12-26T08:15:44.293Z,16.02
2022-12-26T08:18:17.747Z,14.95
2022-12-26T08:20:51.760Z,16.05
2022-12-26T08:23:25.285Z,22.52
2022-12-26T08:25:58.816Z,15.07
2022-12-26T08:28:33.721Z,18.33
2022-12-26T08:31:09.249Z,19.33
2022-12-26T08:33:42.959Z,25.80
2022-12-26T08:36:19.115Z,22.33
2022-12-26T08:38:52.663Z,24.20
2022-12-26T08:41:26.398Z,15.85
2022-12-26T08:44:26.683Z,16.83
2022-12-26T08:46:54.935Z,19.35
2022-12-26T08:49:28.401Z,18.63
2022-12-26T08:52:01.933Z,18.65
2022-12-26T08:54:35.628Z,23.05
2022-12-26T08:57:09.643Z,23.70
2022-12-26T08:59:44.551Z,24.27
2022-12-26T09:02:18.221Z,29.00
2022-12-26T09:04:51.969Z,25.83
2022-12-26T09:07:26.098Z,25.58
2022-12-26T09:09:59.616Z,17.95
2022-12-26T09:12:33.277Z,27.63
2022-12-26T09:15:09.280Z,27.30
2022-12-26T09:17:42.779Z,31.20
2022-12-26T09:20:16.484Z,27.52
2022-12-26T09:22:52.795Z,30.00
2022-12-26T09:25:28.170Z,30.38
2022-12-26T09:28:01.633Z,28.90
2022-12-26T09:30:37.973Z,31.02
2022-12-26T09:33:11.523Z,32.20
2022-12-26T09:35:45.255Z,26.23
2022-12-26T09:38:18.794Z,32.88
2022-12-26T09:41:03.484Z,22.42
2022-12-26T09:43:51.722Z,22.27
2022-12-26T09:46:33.882Z,24.77
2022-12-26T09:49:12.697Z,14.80
2022-12-26T09:51:50.090Z,17.15
2022-12-26T09:54:30.989Z,23.45
2022-12-26T09:57:14.898Z,13.30
2022-12-26T09:59:52.484Z,14.88
2022-12-26T10:02:28.515Z,20.67
2022-12-26T10:05:02.422Z,8.07
2022-12-26T10:07:43.883Z,8.75
2022-12-26T10:10:24.192Z,17.23
2022-12-26T10:13:06.233Z,11.63
2022-12-26T10:15:44.489Z,15.95
2022-12-26T10:18:37.292Z,21.73
2022-12-26T10:23:55.986Z,17.02
2022-12-26T10:26:34.408Z,13.57
2022-12-26T10:29:20.253Z,16.25
2022-12-26T10:31:57.935Z,16.70
2022-12-26T10:34:37.762Z,8.82
2022-12-26T10:37:19.336Z,10.65
2022-12-26T10:39:57.771Z,12.35
2022-12-26T10:42:36.008Z,11.55
2022-12-26T10:45:17.439Z,11.07
2022-12-26T10:47:52.488Z,9.95
2022-12-26T10:50:30.120Z,10.77
2022-12-26T10:53:06.558Z,12.57
2022-12-26T10:55:40.091Z,7.78
2022-12-26T10:58:19.117Z,15.18
2022-12-26T11:00:52.647Z,12.07
2022-12-26T11:03:26.312Z,13.13
2022-12-26T11:06:08.590Z,13.93
2022-12-26T11:08:50.391Z,12.07
2022-12-26T11:11:26.411Z,9.43
2022-12-26T11:14:03.534Z,11.68
2022-12-26T11:16:41.277Z,11.98
2022-12-26T11:19:28.536Z,12.98
2022-12-26T11:22:23.709Z,10.73
2022-12-26T11:25:20.597Z,9.40
2022-12-26T11:27:55.754Z,8.77
2022-12-26T11:30:32.420Z,6.63
2022-12-26T11:33:24.338Z,12.52
2022-12-26T11:36:10.512Z,10.05
2022-12-26T11:38:51.332Z,18.17
2022-12-26T11:41:44.170Z,9.40
2022-12-26T11:44:22.921Z,10.57
2022-12-26T11:46:59.642Z,8.52
2022-12-26T11:49:36.405Z,8.82
2022-12-26T11:52:33.923Z,7.55
2022-12-26T11:55:30.008Z,10.82
2022-12-26T11:58:16.421Z,14.85
2022-12-26T12:01:08.213Z,10.13
2022-12-26T12:03:48.826Z,9.75
2022-12-26T12:06:53.970Z,11.32
2022-12-26T12:09:34.401Z,11.48
2022-12-26T12:12:19.454Z,12.52
2022-12-26T12:15:03.464Z,11.00
2022-12-26T12:17:47.708Z,10.50
2022-12-26T12:20:32.711Z,8.63
2022-12-26T12:23:21.879Z,12.35
2022-12-26T12:26:06.838Z,10.35
2022-12-26T12:29:18.981Z,14.60
2022-12-26T12:32:12.733Z,10.75
2022-12-26T12:35:19.420Z,11.70
2022-12-26T12:38:16.280Z,9.70
2022-12-26T12:40:59.639Z,11.93
2022-12-26T12:43:42.680Z,11.23
2022-12-26T12:46:24.000Z,14.88
2022-12-26T12:49:36.111Z,11.60
2022-12-26T12:52:29.741Z,9.98
2022-12-26T12:55:27.835Z,10.75
2022-12-26T12:58:09.395Z,10.45
2022-12-26T13:00:46.416Z,12.45
2022-12-26T13:03:27.118Z,14.95
2022-12-26T13:06:06.532Z,15.02
2022-12-26T13:08:45.010Z,13.40
2022-12-26T13:11:25.034Z,17.20
2022-12-26T13:14:02.785Z,19.48
2022-12-26T13:16:43.589Z,26.60
2022-12-26T13:19:21.254Z,15.80
2022-12-26T13:21:58.781Z,16.35
2022-12-26T13:24:35.797Z,17.00
2022-12-26T13:27:19.592Z,14.50
2022-12-26T13:29:53.980Z,12.40
2022-12-26T13:32:29.692Z,14.90
2022-12-26T13:35:04.438Z,15.38
2022-12-26T13:37:58.869Z,14.65
2022-12-26T13:40:34.147Z,15.07
2022-12-26T13:43:35.800Z,13.80
2022-12-26T13:46:37.111Z,13.98
2022-12-26T13:49:30.591Z,15.65
2022-12-26T13:52:33.773Z,18.17
2022-12-26T13:55:32.527Z,11.68
2022-12-26T13:58:30.416Z,13.38
2022-12-26T14:01:09.958Z,12.70
2022-12-26T14:03:54.001Z,12.55
2022-12-26T14:06:53.563Z,15.82
2022-12-26T14:09:40.602Z,15.48
2022-12-26T14:12:38.219Z,14.02
2022-12-26T14:15:28.254Z,16.65
2022-12-26T14:18:13.638Z,21.48
2022-12-26T14:20:52.980Z,15.82
2022-12-26T14:23:41.504Z,15.70
2022-12-26T14:26:32.401Z,15.48
2022-12-26T14:29:14.539Z,13.63
2022-12-26T14:32:01.940Z,22.23
2022-12-26T14:34:55.034Z,19.20
2022-12-26T14:37:38.237Z,23.60
2022-12-26T14:40:30.022Z,17.90
2022-12-26T14:43:11.272Z,20.92
2022-12-26T14:45:48.959Z,21.23
2022-12-26T14:48:58.616Z,18.70
2022-12-26T14:51:51.982Z,21.30
2022-12-26T14:54:38.947Z,22.17
2022-12-26T14:57:45.855Z,26.25
2022-12-26T15:00:33.810Z,16.17
2022-12-26T15:03:45.951Z,20.70
2022-12-26T15:06:54.764Z,20.63
2022-12-26T15:10:06.397Z,25.02
2022-12-26T15:13:16.286Z,23.08
2022-12-26T15:16:04.106Z,25.52
2022-12-26T15:19:09.869Z,23.35
2022-12-26T15:22:15.106Z,21.55
2022-12-26T15:25:38.788Z,18.75
2022-12-26T15:29:01.648Z,22.08
2022-12-26T15:31:46.300Z,20.83
2022-12-26T15:34:46.366Z,25.75
2022-12-26T15:37:30.736Z,25.10
2022-12-26T15:40:15.075Z,21.15
2022-12-26T15:43:19.067Z,25.05
2022-12-26T15:46:01.209Z,35.80
2022-12-26T15:48:53.621Z,35.88
2022-12-26T15:51:45.345Z,33.05
2022-12-26T15:54:32.957Z,38.65
2022-12-26T15:57:16.132Z,31.35
2022-12-26T16:00:13.999Z,27.83
2022-12-26T16:02:57.505Z,43.28
2022-12-26T16:05:41.737Z,36.53
2022-12-26T16:08:46.024Z,32.63
2022-12-26T16:11:22.182Z,40.80
2022-12-26T16:14:01.464Z,41.80
2022-12-26T16:16:38.385Z,28.80
2022-12-26T16:19:19.321Z,41.60
2022-12-26T16:22:20.293Z,48.28
2022-12-26T16:24:54.598Z,52.30
2022-12-26T16:27:28.590Z,45.78
2022-12-26T16:30:11.617Z,53.97
2022-12-26T16:32:48.231Z,45.42
2022-12-26T16:35:25.543Z,40.47
2022-12-26T16:38:01.555Z,42.47
2022-12-26T16:40:37.454Z,48.45
2022-12-26T16:43:26.866Z,45.13
2022-12-26T16:46:03.674Z,65.65
2022-12-26T16:48:38.945Z,46.67
2022-12-26T16:51:36.587Z,38.20
2022-12-26T16:54:18.298Z,35.83
2022-12-26T16:56:54.233Z,38.00
2022-12-26T16:59:37.033Z,38.50
2022-12-26T17:02:19.226Z,40.20
2022-12-26T17:04:58.707Z,46.28
2022-12-26T17:07:33.266Z,52.88
2022-12-26T17:10:13.684Z,49.30
2022-12-26T17:12:48.492Z,61.47
2022-12-26T17:15:26.297Z,68.63
2022-12-26T17:18:01.031Z,63.58
2022-12-26T17:20:38.148Z,62.80
2022-12-26T17:23:36.679Z,76.88
2022-12-26T17:26:29.460Z,81.68
2022-12-26T17:29:03.085Z,71.00
2022-12-26T17:31:39.960Z,65.13
2022-12-26T17:34:17.240Z,72.22
2022-12-26T17:37:18.253Z,71.55
2022-12-26T17:39:55.711Z,71.40
2022-12-26T17:42:39.349Z,74.97
2022-12-26T17:45:17.986Z,66.55
2022-12-26T17:47:52.839Z,64.10
2022-12-26T17:50:32.511Z,66.88
2022-12-26T17:53:11.334Z,63.67
2022-12-26T17:55:44.826Z,74.97
2022-12-26T17:58:18.539Z,77.00
2022-12-26T18:00:52.921Z,88.28
2022-12-26T18:03:27.022Z,76.03
2022-12-26T18:06:00.678Z,83.03
2022-12-26T18:08:37.403Z,86.90
2022-12-26T18:11:12.636Z,89.43
2022-12-26T18:13:46.115Z,101.78
2022-12-26T18:16:25.068Z,120.90
2022-12-26T18:18:58.635Z,109.43
2022-12-26T18:21:32.135Z,113.85
2022-12-26T18:24:07.498Z,113.82
2022-12-26T18:26:41.150Z,98.72
2022-12-26T18:29:14.646Z,86.40
2022-12-26T18:31:48.270Z,90.35
2022-12-26T18:34:21.817Z,85.90
2022-12-26T18:36:55.319Z,155.55
2022-12-26T18:39:30.296Z,148.82
2022-12-26T18:42:03.791Z,150.05
2022-12-26T18:44:38.375Z,125.63
2022-12-26T18:47:13.947Z,137.70
2022-12-26T18:49:48.263Z,154.30
2022-12-26T18:52:22.725Z,141.77
2022-12-26T18:54:57.806Z,141.70
2022-12-26T18:57:31.358Z,137.45
2022-12-26T19:00:05.594Z,122.20
2022-12-26T19:02:39.221Z,102.63
2022-12-26T19:05:19.134Z,109.72
2022-12-26T19:07:52.962Z,76.07
2022-12-26T19:10:30.880Z,90.40
2022-12-26T19:13:06.424Z,58.45
2022-12-26T19:15:40.776Z,31.50
2022-12-26T19:18:14.674Z,37.10
2022-12-26T19:20:48.213Z,38.88
2022-12-26T19:23:21.867Z,36.15
2022-12-26T19:25:56.848Z,26.23
2022-12-26T19:28:30.425Z,31.33
2022-12-26T19:31:08.375Z,45.72
2022-12-26T19:33:42.164Z,46.63
2022-12-26T19:36:16.226Z,49.47
2022-12-26T19:38:49.733Z,46.88
2022-12-26T19:41:24.712Z,63.35
2022-12-26T19:43:59.524Z,54.40
2022-12-26T19:46:33.013Z,67.55
2022-12-26T19:49:06.568Z,53.90
2022-12-26T19:51:40.311Z,76.05
2022-12-26T19:54:14.176Z,77.18
2022-12-26T19:56:49.343Z,91.15
2022-12-26T19:59:23.195Z,93.03
2022-12-26T20:01:56.914Z,88.07
2022-12-26T20:04:31.533Z,80.78
2022-12-26T20:07:05.133Z,72.55
2022-12-26T20:09:38.897Z,70.07
2022-12-26T20:12:14.133Z,68.28
2022-12-26T20:14:47.759Z,82.28
2022-12-26T20:17:22.132Z,60.90
2022-12-26T20:19:56.113Z,71.30
2022-12-26T20:22:29.798Z,64.22
2022-12-26T20:25:04.460Z,52.08
2022-12-26T20:27:40.790Z,51.40
2022-12-26T20:30:14.656Z,49.83
2022-12-26T20:32:48.150Z,44.70
2022-12-26T20:35:21.743Z,42.97
2022-12-26T20:37:55.466Z,37.70
2022-12-26T20:40:29.169Z,36.55
2022-12-26T20:43:04.168Z,37.13
2022-12-26T20:45:39.386Z,41.97
2022-12-26T20:48:13.003Z,36.25
2022-12-26T20:50:46.583Z,34.72
2022-12-26T20:53:20.064Z,40.75
2022-12-26T20:55:55.059Z,35.90
2022-12-26T20:58:34.535Z,48.42
2022-12-26T21:01:13.173Z,44.70
2022-12-26T21:03:47.545Z,48.17
2022-12-26T21:06:23.239Z,35.25
2022-12-26T21:08:58.115Z,51.60
2022-12-26T21:11:33.498Z,36.88
2022-12-26T21:14:12.010Z,35.35
2022-12-26T21:16:47.651Z,34.42
2022-12-26T21:19:22.996Z,34.90
2022-12-26T21:21:57.171Z,88.63
2022-12-26T21:24:33.014Z,36.20
2022-12-26T21:27:06.612Z,21.40
2022-12-26T21:29:42.046Z,26.80
2022-12-26T21:32:16.288Z,60.35
2022-12-26T21:34:50.260Z,46.63
2022-12-26T21:37:41.327Z,57.22
2022-12-26T21:40:14.898Z,35.00
2022-12-26T21:42:50.598Z,44.88
2022-12-26T21:45:26.700Z,118.00
2022-12-26T21:48:00.368Z,72.93
2022-12-26T21:50:34.771Z,53.03
2022-12-26T21:53:08.608Z,40.22
2022-12-26T21:55:41.170Z,43.97
2022-12-26T21:58:14.759Z,38.08
2022-12-26T22:00:49.735Z,31.60
2022-12-26T22:03:40.834Z,21.50
2022-12-26T22:06:17.315Z,84.53
2022-12-26T22:08:51.014Z,43.83
2022-12-26T22:11:42.395Z,36.63
2022-12-26T22:14:16.031Z,23.05
2022-12-26T22:16:54.296Z,20.02
2022-12-26T22:19:28.059Z,22.88
2022-12-26T22:22:01.668Z,17.35
2022-12-26T22:24:35.434Z,14.45
2022-12-26T22:27:08.982Z,13.25
2022-12-26T22:29:42.549Z,13.30
2022-12-26T22:32:17.505Z,16.10
2022-12-26T22:34:51.088Z,14.50
2022-12-26T22:37:24.712Z,12.75
2022-12-26T22:39:58.317Z,15.10
2022-12-26T22:42:31.969Z,14.85
2022-12-26T22:45:06.110Z,14.43
2022-12-26T22:47:41.067Z,16.45
2022-12-26T22:50:16.517Z,16.77
2022-12-26T22:52:50.061Z,15.65
2022-12-26T22:55:23.629Z,13.75
2022-12-26T22:58:00.613Z,15.25
2022-12-26T23:00:36.004Z,16.27
2022-12-26T23:03:11.299Z,18.67
2022-12-26T23:05:45.678Z,17.67
2022-12-26T23:08:23.154Z,16.77
2022-12-26T23:10:58.777Z,21.73
2022-12-26T23:13:32.832Z,16.95
2022-12-26T23:16:14.785Z,17.75
2022-12-26T23:19:18.458Z,15.73
2022-12-26T23:21:52.451Z,15.32
2022-12-26T23:24:28.342Z,19.02
2022-12-26T23:27:18.432Z,16.67
2022-12-26T23:30:12.777Z,16.17
2022-12-26T23:32:48.139Z,16.83
2022-12-26T23:35:24.975Z,11.90
2022-12-26T23:37:58.486Z,13.63
2022-12-26T23:40:32.088Z,16.20
2022-12-26T23:43:05.880Z,16.02
2022-12-26T23:45:43.845Z,15.00
2022-12-26T23:48:17.628Z,17.17
2022-12-26T23:51:01.243Z,16.73
2022-12-26T23:53:35.100Z,15.52
2022-12-26T23:56:09.694Z,18.30
2022-12-26T23:58:43.476Z,16.70
